JNA609 RKSS-RKPC
Flight info
| Callsign | JNA609 |
|---|---|
| Flight time | 0h 47m |
| Altitude | 24000 |
| Route | BULTI2T BULTI Y711 DOTOL DOTOL2M |
| Aircraft | B738/M-SDE2E3FGHIRWXY/LB1 |
Departure
| Time | 2026-04-29 09:48 |
|---|---|
| Airport | Gimpo International Airport (RKSS) |
Arrival
| Time | 2026-04-29 10:35 |
|---|---|
| Airport | Jeju International Airport (RKPC) |
| Time | Latitude | Longitude | Altitude | Speed | Heading |
|---|---|---|---|---|---|
| 2026-04-29 09:27 | 37.55719 | 126.80392 | 65 ft | 0 kts | 45° |
| 2026-04-29 09:37 | 37.55708 | 126.80379 | 65 ft | 2 kts | 43° |
| 2026-04-29 09:37 | 37.55697 | 126.80365 | 65 ft | 2 kts | 41° |
| 2026-04-29 09:38 | 37.55685 | 126.80353 | 65 ft | 2 kts | 37° |
| 2026-04-29 09:38 | 37.55672 | 126.80342 | 65 ft | 2 kts | 30° |
| 2026-04-29 09:38 | 37.55659 | 126.80331 | 65 ft | 2 kts | 54° |
| 2026-04-29 09:38 | 37.55651 | 126.80315 | 65 ft | 2 kts | 73° |
| 2026-04-29 09:39 | 37.55648 | 126.80296 | 66 ft | 2 kts | 95° |
| 2026-04-29 09:39 | 37.55652 | 126.80278 | 66 ft | 2 kts | 116° |
| 2026-04-29 09:39 | 37.55659 | 126.80262 | 66 ft | 2 kts | 126° |
| 2026-04-29 09:39 | 37.55668 | 126.80247 | 67 ft | 2 kts | 132° |
| 2026-04-29 09:40 | 37.55673 | 126.80241 | 67 ft | 0 kts | 134° |
| 2026-04-29 09:40 | 37.55673 | 126.80242 | 65 ft | 0 kts | 135° |
| 2026-04-29 09:41 | 37.55672 | 126.80242 | 65 ft | 0 kts | 135° |
| 2026-04-29 09:42 | 37.55641 | 126.80282 | 65 ft | 16 kts | 135° |
| 2026-04-29 09:43 | 37.55522 | 126.80382 | 63 ft | 22 kts | 136° |
| 2026-04-29 09:43 | 37.55416 | 126.80517 | 58 ft | 21 kts | 135° |
| 2026-04-29 09:43 | 37.55312 | 126.80648 | 62 ft | 21 kts | 135° |
| 2026-04-29 09:43 | 37.55214 | 126.80771 | 62 ft | 19 kts | 135° |
| 2026-04-29 09:44 | 37.55121 | 126.80888 | 61 ft | 19 kts | 135° |
| 2026-04-29 09:44 | 37.55037 | 126.80990 | 59 ft | 13 kts | 144° |
| 2026-04-29 09:44 | 37.55010 | 126.80993 | 59 ft | 4 kts | 212° |
| 2026-04-29 09:44 | 37.54961 | 126.80927 | 59 ft | 13 kts | 225° |
| 2026-04-29 09:45 | 37.54898 | 126.80850 | 65 ft | 13 kts | 225° |
| 2026-04-29 09:45 | 37.54856 | 126.80796 | 65 ft | 0 kts | 225° |
| 2026-04-29 09:46 | 37.54852 | 126.80791 | 65 ft | 5 kts | 225° |
| 2026-04-29 09:46 | 37.54798 | 126.80712 | 66 ft | 10 kts | 251° |
| 2026-04-29 09:47 | 37.54833 | 126.80642 | 64 ft | 9 kts | 317° |
| 2026-04-29 09:47 | 37.54897 | 126.80562 | 66 ft | 36 kts | 315° |
| 2026-04-29 09:47 | 37.55317 | 126.80034 | 61 ft | 131 kts | 314° |
| 2026-04-29 09:47 | 37.56104 | 126.79025 | 365 ft | 183 kts | 314° |
| 2026-04-29 09:48 | 37.57030 | 126.77864 | 1539 ft | 189 kts | 312° |
| 2026-04-29 09:48 | 37.57953 | 126.76637 | 2656 ft | 197 kts | 313° |
| 2026-04-29 09:48 | 37.58944 | 126.75311 | 3145 ft | 221 kts | 313° |
| 2026-04-29 09:48 | 37.60042 | 126.73821 | 3613 ft | 238 kts | 313° |
| 2026-04-29 09:49 | 37.61186 | 126.72229 | 4150 ft | 255 kts | 306° |
| 2026-04-29 09:49 | 37.61904 | 126.70156 | 4782 ft | 263 kts | 281° |
| 2026-04-29 09:49 | 37.61837 | 126.67854 | 4975 ft | 266 kts | 253° |
| 2026-04-29 09:49 | 37.60951 | 126.65826 | 5012 ft | 268 kts | 231° |
| 2026-04-29 09:50 | 37.59684 | 126.64081 | 5020 ft | 271 kts | 227° |
| 2026-04-29 09:50 | 37.58393 | 126.62364 | 5013 ft | 269 kts | 227° |
| 2026-04-29 09:50 | 37.57111 | 126.60655 | 5010 ft | 268 kts | 226° |
| 2026-04-29 09:50 | 37.55560 | 126.59388 | 5023 ft | 269 kts | 200° |
| 2026-04-29 09:51 | 37.53696 | 126.58959 | 5439 ft | 276 kts | 186° |
| 2026-04-29 09:51 | 37.51771 | 126.58722 | 6479 ft | 277 kts | 186° |
| 2026-04-29 09:51 | 37.49847 | 126.58488 | 7520 ft | 279 kts | 186° |
| 2026-04-29 09:51 | 37.47922 | 126.58244 | 8449 ft | 284 kts | 186° |
| 2026-04-29 09:52 | 37.45938 | 126.57983 | 9383 ft | 289 kts | 186° |
| 2026-04-29 09:52 | 37.43923 | 126.57714 | 10289 ft | 294 kts | 186° |
| 2026-04-29 09:52 | 37.41813 | 126.57430 | 10701 ft | 318 kts | 186° |
| 2026-04-29 09:52 | 37.39509 | 126.57408 | 10916 ft | 345 kts | 170° |
| 2026-04-29 09:53 | 37.37128 | 126.58098 | 11543 ft | 354 kts | 166° |
| 2026-04-29 09:53 | 37.34718 | 126.58807 | 11950 ft | 358 kts | 167° |
| 2026-04-29 09:53 | 37.32289 | 126.59485 | 11993 ft | 358 kts | 167° |
| 2026-04-29 09:53 | 37.29846 | 126.60241 | 12387 ft | 365 kts | 165° |
| 2026-04-29 09:54 | 37.27386 | 126.61076 | 13269 ft | 366 kts | 164° |
| 2026-04-29 09:54 | 37.24927 | 126.61907 | 14190 ft | 367 kts | 165° |
| 2026-04-29 09:54 | 37.22447 | 126.62734 | 14984 ft | 371 kts | 165° |
| 2026-04-29 09:54 | 37.19932 | 126.63564 | 15719 ft | 376 kts | 165° |
| 2026-04-29 09:55 | 37.17384 | 126.64402 | 16463 ft | 380 kts | 165° |
| 2026-04-29 09:55 | 37.14809 | 126.65248 | 17165 ft | 385 kts | 165° |
| 2026-04-29 09:55 | 37.12201 | 126.66104 | 17857 ft | 389 kts | 166° |
| 2026-04-29 09:55 | 37.09568 | 126.66969 | 18550 ft | 393 kts | 166° |
| 2026-04-29 09:56 | 37.06912 | 126.67840 | 19211 ft | 397 kts | 167° |
| 2026-04-29 09:56 | 37.04224 | 126.68722 | 19827 ft | 402 kts | 168° |
| 2026-04-29 09:56 | 37.01507 | 126.69612 | 20420 ft | 406 kts | 169° |
| 2026-04-29 09:56 | 36.98767 | 126.70511 | 21022 ft | 409 kts | 169° |
| 2026-04-29 09:57 | 36.96000 | 126.71420 | 21620 ft | 413 kts | 170° |
| 2026-04-29 09:57 | 36.93212 | 126.72336 | 22177 ft | 416 kts | 171° |
| 2026-04-29 09:57 | 36.90411 | 126.73258 | 22722 ft | 418 kts | 171° |
| 2026-04-29 09:57 | 36.87617 | 126.74430 | 23211 ft | 427 kts | 165° |
| 2026-04-29 09:58 | 36.84856 | 126.75871 | 23681 ft | 432 kts | 163° |
| 2026-04-29 09:58 | 36.82094 | 126.77389 | 24059 ft | 435 kts | 164° |
| 2026-04-29 09:58 | 36.79297 | 126.78896 | 24072 ft | 439 kts | 165° |
| 2026-04-29 09:58 | 36.76515 | 126.80343 | 24074 ft | 437 kts | 165° |
| 2026-04-29 09:59 | 36.73669 | 126.81793 | 24085 ft | 435 kts | 167° |
| 2026-04-29 09:59 | 36.70831 | 126.82691 | 24074 ft | 418 kts | 184° |
| 2026-04-29 09:59 | 36.67948 | 126.82779 | 24098 ft | 413 kts | 187° |
| 2026-04-29 09:59 | 36.65075 | 126.82820 | 24089 ft | 413 kts | 187° |
| 2026-04-29 10:00 | 36.62194 | 126.82889 | 24087 ft | 414 kts | 186° |
| 2026-04-29 10:00 | 36.59304 | 126.82988 | 24093 ft | 415 kts | 186° |
| 2026-04-29 10:00 | 36.56418 | 126.83101 | 24086 ft | 415 kts | 186° |
| 2026-04-29 10:00 | 36.53528 | 126.83215 | 24063 ft | 414 kts | 186° |
| 2026-04-29 10:01 | 36.50657 | 126.83324 | 24098 ft | 413 kts | 186° |
| 2026-04-29 10:01 | 36.47781 | 126.83434 | 24098 ft | 413 kts | 186° |
| 2026-04-29 10:01 | 36.44908 | 126.83543 | 24099 ft | 414 kts | 186° |
| 2026-04-29 10:01 | 36.42021 | 126.83650 | 24095 ft | 416 kts | 186° |
| 2026-04-29 10:02 | 36.39131 | 126.83756 | 24096 ft | 415 kts | 187° |
| 2026-04-29 10:02 | 36.36270 | 126.83593 | 24097 ft | 409 kts | 192° |
| 2026-04-29 10:02 | 36.33442 | 126.83270 | 24091 ft | 408 kts | 193° |
| 2026-04-29 10:02 | 36.30621 | 126.82939 | 24103 ft | 407 kts | 193° |
| 2026-04-29 10:03 | 36.27797 | 126.82612 | 24098 ft | 407 kts | 193° |
| 2026-04-29 10:03 | 36.25014 | 126.82296 | 24100 ft | 407 kts | 192° |
| 2026-04-29 10:03 | 36.23111 | 126.82086 | 24099 ft | 406 kts | 192° |
| 2026-04-29 10:03 | 36.20294 | 126.81780 | 24100 ft | 407 kts | 192° |
| 2026-04-29 10:04 | 36.16563 | 126.81376 | 24110 ft | 406 kts | 192° |
| 2026-04-29 10:04 | 36.13749 | 126.81072 | 24109 ft | 406 kts | 192° |
| 2026-04-29 10:04 | 36.11845 | 126.80865 | 24114 ft | 406 kts | 192° |
| 2026-04-29 10:04 | 36.08109 | 126.80460 | 24110 ft | 407 kts | 192° |
| 2026-04-29 10:05 | 36.06205 | 126.80253 | 24116 ft | 407 kts | 192° |
| 2026-04-29 10:05 | 36.02475 | 126.79849 | 24119 ft | 406 kts | 192° |
| 2026-04-29 10:05 | 36.00575 | 126.79643 | 24114 ft | 406 kts | 192° |
| 2026-04-29 10:05 | 35.97763 | 126.79338 | 24123 ft | 405 kts | 192° |
| 2026-04-29 10:06 | 35.94952 | 126.79034 | 24118 ft | 405 kts | 192° |
| 2026-04-29 10:06 | 35.92147 | 126.78730 | 24114 ft | 405 kts | 192° |
| 2026-04-29 10:06 | 35.89384 | 126.78432 | 24118 ft | 404 kts | 192° |
| 2026-04-29 10:06 | 35.86582 | 126.78129 | 24121 ft | 404 kts | 192° |
| 2026-04-29 10:07 | 35.83787 | 126.77826 | 24120 ft | 403 kts | 192° |
| 2026-04-29 10:07 | 35.80988 | 126.77522 | 24119 ft | 403 kts | 192° |
| 2026-04-29 10:07 | 35.78194 | 126.77220 | 24121 ft | 403 kts | 192° |
| 2026-04-29 10:07 | 35.75401 | 126.76918 | 24120 ft | 403 kts | 192° |
| 2026-04-29 10:08 | 35.72601 | 126.76615 | 24121 ft | 403 kts | 192° |
| 2026-04-29 10:08 | 35.69798 | 126.76312 | 24122 ft | 404 kts | 192° |
| 2026-04-29 10:08 | 35.66999 | 126.76010 | 24120 ft | 404 kts | 192° |
| 2026-04-29 10:08 | 35.64197 | 126.75708 | 24122 ft | 404 kts | 192° |
| 2026-04-29 10:09 | 35.61390 | 126.75405 | 24122 ft | 405 kts | 192° |
| 2026-04-29 10:09 | 35.58590 | 126.75104 | 24119 ft | 405 kts | 192° |
| 2026-04-29 10:09 | 35.55780 | 126.74802 | 24116 ft | 405 kts | 192° |
| 2026-04-29 10:09 | 35.52974 | 126.74500 | 24119 ft | 405 kts | 192° |
| 2026-04-29 10:10 | 35.50174 | 126.74200 | 24118 ft | 404 kts | 192° |
| 2026-04-29 10:10 | 35.47367 | 126.73899 | 24122 ft | 404 kts | 192° |
| 2026-04-29 10:10 | 35.44561 | 126.73597 | 24124 ft | 405 kts | 192° |
| 2026-04-29 10:10 | 35.41744 | 126.73296 | 24115 ft | 406 kts | 192° |
| 2026-04-29 10:11 | 35.38934 | 126.72997 | 24107 ft | 405 kts | 192° |
| 2026-04-29 10:11 | 35.36129 | 126.72697 | 24127 ft | 404 kts | 192° |
| 2026-04-29 10:11 | 35.33324 | 126.72397 | 24123 ft | 404 kts | 192° |
| 2026-04-29 10:11 | 35.30543 | 126.72098 | 24125 ft | 411 kts | 192° |
| 2026-04-29 10:12 | 35.27632 | 126.71783 | 24127 ft | 419 kts | 192° |
| 2026-04-29 10:12 | 35.24742 | 126.71473 | 24125 ft | 426 kts | 192° |
| 2026-04-29 10:12 | 35.21764 | 126.71156 | 24137 ft | 432 kts | 192° |
| 2026-04-29 10:12 | 35.18752 | 126.70838 | 24129 ft | 436 kts | 192° |
| 2026-04-29 10:13 | 35.15738 | 126.70521 | 24124 ft | 434 kts | 192° |
| 2026-04-29 10:13 | 35.12733 | 126.70205 | 24124 ft | 433 kts | 192° |
| 2026-04-29 10:13 | 35.09730 | 126.69885 | 24133 ft | 433 kts | 192° |
| 2026-04-29 10:13 | 35.06724 | 126.69565 | 24126 ft | 434 kts | 192° |
| 2026-04-29 10:14 | 35.03717 | 126.69245 | 24131 ft | 434 kts | 192° |
| 2026-04-29 10:14 | 35.00716 | 126.68927 | 24133 ft | 433 kts | 192° |
| 2026-04-29 10:14 | 34.97710 | 126.68609 | 24131 ft | 434 kts | 192° |
| 2026-04-29 10:14 | 34.94698 | 126.68289 | 24127 ft | 434 kts | 192° |
| 2026-04-29 10:15 | 34.91685 | 126.67970 | 24130 ft | 435 kts | 192° |
| 2026-04-29 10:15 | 34.88678 | 126.67651 | 24128 ft | 435 kts | 192° |
| 2026-04-29 10:15 | 34.85660 | 126.67332 | 24129 ft | 434 kts | 192° |
| 2026-04-29 10:15 | 34.82658 | 126.67016 | 24127 ft | 433 kts | 192° |
| 2026-04-29 10:16 | 34.79660 | 126.66701 | 24129 ft | 432 kts | 192° |
| 2026-04-29 10:16 | 34.76669 | 126.66387 | 24137 ft | 431 kts | 192° |
| 2026-04-29 10:16 | 34.73678 | 126.66071 | 24126 ft | 433 kts | 192° |
| 2026-04-29 10:16 | 34.70661 | 126.65751 | 23730 ft | 435 kts | 192° |
| 2026-04-29 10:17 | 34.67663 | 126.65436 | 23194 ft | 430 kts | 191° |
| 2026-04-29 10:17 | 34.64707 | 126.65128 | 22639 ft | 424 kts | 191° |
| 2026-04-29 10:17 | 34.61788 | 126.64825 | 22041 ft | 418 kts | 191° |
| 2026-04-29 10:17 | 34.58906 | 126.64523 | 21465 ft | 415 kts | 191° |
| 2026-04-29 10:18 | 34.56033 | 126.64220 | 20878 ft | 412 kts | 191° |
| 2026-04-29 10:18 | 34.53191 | 126.63921 | 20301 ft | 408 kts | 191° |
| 2026-04-29 10:18 | 34.50370 | 126.63624 | 19727 ft | 405 kts | 191° |
| 2026-04-29 10:18 | 34.47585 | 126.63332 | 19149 ft | 398 kts | 191° |
| 2026-04-29 10:19 | 34.44851 | 126.63046 | 18610 ft | 393 kts | 191° |
| 2026-04-29 10:19 | 34.42133 | 126.62760 | 18055 ft | 391 kts | 191° |
| 2026-04-29 10:19 | 34.39413 | 126.62476 | 17500 ft | 393 kts | 191° |
| 2026-04-29 10:19 | 34.36704 | 126.62189 | 16926 ft | 388 kts | 191° |
| 2026-04-29 10:20 | 34.34058 | 126.61915 | 16394 ft | 385 kts | 190° |
| 2026-04-29 10:20 | 34.31380 | 126.61633 | 15848 ft | 387 kts | 190° |
| 2026-04-29 10:20 | 34.28669 | 126.61351 | 15291 ft | 386 kts | 190° |
| 2026-04-29 10:20 | 34.26045 | 126.61081 | 14746 ft | 382 kts | 190° |
| 2026-04-29 10:21 | 34.23396 | 126.60804 | 14374 ft | 370 kts | 190° |
| 2026-04-29 10:21 | 34.20934 | 126.60559 | 14142 ft | 350 kts | 189° |
| 2026-04-29 10:21 | 34.18585 | 126.60321 | 13855 ft | 332 kts | 190° |
| 2026-04-29 10:21 | 34.16312 | 126.60082 | 13422 ft | 325 kts | 190° |
| 2026-04-29 10:22 | 34.14058 | 126.59854 | 12921 ft | 323 kts | 190° |
| 2026-04-29 10:22 | 34.11825 | 126.59617 | 12374 ft | 325 kts | 189° |
| 2026-04-29 10:22 | 34.09586 | 126.59414 | 11986 ft | 320 kts | 188° |
| 2026-04-29 10:22 | 34.07370 | 126.59248 | 11556 ft | 320 kts | 181° |
| 2026-04-29 10:23 | 34.05203 | 126.59792 | 11342 ft | 314 kts | 166° |
| 2026-04-29 10:23 | 34.03179 | 126.60612 | 11128 ft | 301 kts | 164° |
| 2026-04-29 10:23 | 34.01216 | 126.61433 | 10694 ft | 297 kts | 163° |
| 2026-04-29 10:23 | 33.99269 | 126.62246 | 10201 ft | 296 kts | 163° |
| 2026-04-29 10:24 | 33.97328 | 126.63047 | 9737 ft | 295 kts | 163° |
| 2026-04-29 10:24 | 33.95389 | 126.63839 | 9399 ft | 293 kts | 162° |
| 2026-04-29 10:24 | 33.93465 | 126.64621 | 9086 ft | 291 kts | 162° |
| 2026-04-29 10:24 | 33.91555 | 126.65395 | 8782 ft | 289 kts | 161° |
| 2026-04-29 10:25 | 33.89660 | 126.66159 | 8443 ft | 287 kts | 161° |
| 2026-04-29 10:25 | 33.87771 | 126.66920 | 8109 ft | 286 kts | 161° |
| 2026-04-29 10:25 | 33.85894 | 126.67677 | 7819 ft | 283 kts | 161° |
| 2026-04-29 10:25 | 33.84033 | 126.68426 | 7508 ft | 281 kts | 161° |
| 2026-04-29 10:26 | 33.82182 | 126.69169 | 7201 ft | 280 kts | 161° |
| 2026-04-29 10:26 | 33.80341 | 126.69908 | 6880 ft | 278 kts | 161° |
| 2026-04-29 10:26 | 33.78510 | 126.70645 | 6550 ft | 277 kts | 161° |
| 2026-04-29 10:26 | 33.76697 | 126.71375 | 6196 ft | 273 kts | 161° |
| 2026-04-29 10:27 | 33.73246 | 126.72759 | 5778 ft | 253 kts | 161° |
| 2026-04-29 10:27 | 33.71605 | 126.73416 | 5576 ft | 245 kts | 161° |
| 2026-04-29 10:27 | 33.70014 | 126.74054 | 5363 ft | 238 kts | 161° |
| 2026-04-29 10:28 | 33.68492 | 126.74660 | 5211 ft | 228 kts | 161° |
| 2026-04-29 10:28 | 33.67010 | 126.75251 | 5005 ft | 221 kts | 163° |
| 2026-04-29 10:28 | 33.65523 | 126.75257 | 4717 ft | 216 kts | 202° |
| 2026-04-29 10:28 | 33.64383 | 126.74141 | 4393 ft | 214 kts | 232° |
| 2026-04-29 10:29 | 33.63461 | 126.72743 | 4054 ft | 212 kts | 231° |
| 2026-04-29 10:29 | 33.62614 | 126.71360 | 3840 ft | 200 kts | 236° |
| 2026-04-29 10:29 | 33.61876 | 126.70000 | 3609 ft | 189 kts | 238° |
| 2026-04-29 10:29 | 33.61201 | 126.68703 | 3403 ft | 177 kts | 238° |
| 2026-04-29 10:30 | 33.60568 | 126.67471 | 3196 ft | 171 kts | 238° |
| 2026-04-29 10:30 | 33.59942 | 126.66255 | 3040 ft | 172 kts | 238° |
| 2026-04-29 10:30 | 33.59322 | 126.65045 | 2969 ft | 172 kts | 238° |
| 2026-04-29 10:30 | 33.58693 | 126.63821 | 2767 ft | 172 kts | 238° |
| 2026-04-29 10:31 | 33.58074 | 126.62615 | 2535 ft | 167 kts | 238° |
| 2026-04-29 10:31 | 33.57480 | 126.61456 | 2311 ft | 159 kts | 238° |
| 2026-04-29 10:31 | 33.56923 | 126.60371 | 2096 ft | 148 kts | 238° |
| 2026-04-29 10:31 | 33.56398 | 126.59347 | 1909 ft | 141 kts | 238° |
| 2026-04-29 10:32 | 33.55880 | 126.58337 | 1735 ft | 143 kts | 238° |
| 2026-04-29 10:32 | 33.55358 | 126.57320 | 1543 ft | 142 kts | 238° |
| 2026-04-29 10:32 | 33.54845 | 126.56318 | 1364 ft | 140 kts | 238° |
| 2026-04-29 10:32 | 33.54333 | 126.55320 | 1171 ft | 141 kts | 239° |
| 2026-04-29 10:33 | 33.53817 | 126.54313 | 981 ft | 141 kts | 239° |
| 2026-04-29 10:33 | 33.53305 | 126.53313 | 792 ft | 141 kts | 239° |
| 2026-04-29 10:33 | 33.52795 | 126.52317 | 614 ft | 140 kts | 239° |
| 2026-04-29 10:33 | 33.52286 | 126.51323 | 422 ft | 140 kts | 239° |
| 2026-04-29 10:34 | 33.51780 | 126.50331 | 246 ft | 140 kts | 239° |
| 2026-04-29 10:34 | 33.51273 | 126.49344 | 98 ft | 138 kts | 239° |
| 2026-04-29 10:34 | 33.50818 | 126.48455 | 90 ft | 107 kts | 239° |
| 2026-04-29 10:34 | 33.50512 | 126.47860 | 92 ft | 63 kts | 238° |
| 2026-04-29 10:35 | 33.50401 | 126.47733 | 93 ft | 0 kts | 186° |
| 2026-04-29 10:35 | 33.50381 | 126.47749 | 93 ft | 6 kts | 136° |
| 2026-04-29 10:35 | 33.50341 | 126.47781 | 93 ft | 11 kts | 148° |
| 2026-04-29 10:35 | 33.50341 | 126.47906 | 92 ft | 25 kts | 58° |
| 2026-04-29 10:36 | 33.50450 | 126.48119 | 91 ft | 31 kts | 58° |
| 2026-04-29 10:36 | 33.50551 | 126.48316 | 90 ft | 24 kts | 58° |
| 2026-04-29 10:36 | 33.50636 | 126.48480 | 90 ft | 23 kts | 58° |
| 2026-04-29 10:36 | 33.50700 | 126.48604 | 89 ft | 9 kts | 58° |
| 2026-04-29 10:37 | 33.50732 | 126.48668 | 89 ft | 10 kts | 58° |
| 2026-04-29 10:37 | 33.50776 | 126.48752 | 88 ft | 13 kts | 58° |
| 2026-04-29 10:37 | 33.50800 | 126.48831 | 88 ft | 8 kts | 107° |
| 2026-04-29 10:37 | 33.50763 | 126.48875 | 88 ft | 8 kts | 146° |
| 2026-04-29 10:38 | 33.50719 | 126.48906 | 88 ft | 7 kts | 147° |
| 2026-04-29 10:38 | 33.50705 | 126.48957 | 88 ft | 7 kts | 75° |
| 2026-04-29 10:38 | 33.50727 | 126.49007 | 88 ft | 7 kts | 59° |
| 2026-04-29 10:38 | 33.50744 | 126.49055 | 88 ft | 6 kts | 102° |
| 2026-04-29 10:39 | 33.50716 | 126.49092 | 89 ft | 6 kts | 154° |
| 2026-04-29 10:39 | 33.50686 | 126.49111 | 89 ft | 2 kts | 152° |
| 2026-04-29 10:39 | 33.50676 | 126.49117 | 89 ft | 1 kts | 152° |
| 2026-04-29 10:39 | 33.50673 | 126.49119 | 89 ft | 0 kts | 152° |